Time;durP1;ratioP1;P1;durP2;ratioP2;P2;SDS_P1;SDS_P2;PMS_P1;PMS_P2;Temp;Humidity;BMP_temperature;BMP_pressure;BME280_temperature;BME280_humidity;BME280_pressure;Samples;Min_cycle;Max_cycle;Signal;HPM_P1;HPM_P2
2024/01/08 00:02:18;;;;;;;41.92;39.45;;;;;;;;;;5052430;28;20037;-75
2024/01/08 00:04:48;;;;;;;44.33;41.72;;;;;;;;;;5059754;28;20052;-74
2024/01/08 00:07:18;;;;;;;56.92;53.45;;;;;;;;;;5063239;28;20044;-75
2024/01/08 00:09:49;;;;;;;43.70;41.25;;;;;;;;;;5063366;28;20045;-74
2024/01/08 00:12:20;;;;;;;43.20;40.47;;;;;;;;;;5062927;28;20037;-74
2024/01/08 00:14:51;;;;;;;46.20;43.58;;;;;;;;;;5063059;28;20613;-74
2024/01/08 00:17:22;;;;;;;44.75;41.88;;;;;;;;;;5062636;28;20159;-74
2024/01/08 00:19:52;;;;;;;44.53;41.95;;;;;;;;;;5062570;28;20055;-77
2024/01/08 00:22:22;;;;;;;51.80;48.67;;;;;;;;;;5061839;28;20075;-73
2024/01/08 00:24:53;;;;;;;45.53;42.80;;;;;;;;;;5063361;28;20060;-73
2024/01/08 00:27:23;;;;;;;54.70;51.17;;;;;;;;;;5062384;28;20687;-74
2024/01/08 00:29:53;;;;;;;56.67;52.90;;;;;;;;;;5062435;28;20048;-76
2024/01/08 00:32:24;;;;;;;47.60;44.85;;;;;;;;;;5062915;28;20040;-74
2024/01/08 00:34:55;;;;;;;47.67;44.80;;;;;;;;;;5063056;28;20605;-74
2024/01/08 00:37:26;;;;;;;43.78;41.22;;;;;;;;;;5062933;28;20419;-74
2024/01/08 00:39:57;;;;;;;41.40;38.90;;;;;;;;;;5063276;28;20126;-74
2024/01/08 00:42:28;;;;;;;52.30;49.45;;;;;;;;;;5063053;28;20044;-76
2024/01/08 00:44:58;;;;;;;48.47;45.40;;;;;;;;;;5063122;28;20483;-75
2024/01/08 00:47:29;;;;;;;42.72;39.90;;;;;;;;;;5062834;28;20496;-75
2024/01/08 00:50:01;;;;;;;41.88;39.50;;;;;;;;;;5063147;28;20048;-75
2024/01/08 00:52:32;;;;;;;39.97;37.33;;;;;;;;;;5061781;28;20052;-76
2024/01/08 00:55:04;;;;;;;38.63;36.22;;;;;;;;;;5062515;28;20059;-74
2024/01/08 00:57:36;;;;;;;36.90;34.63;;;;;;;;;;5062724;28;20040;-77
2024/01/08 01:00:11;;;;;;;45.17;42.65;;;;;;;;;;5062547;28;20526;-77
2024/01/08 01:02:41;;;;;;;;;;;;;;;;;;5062521;28;20049;-77
2024/01/08 01:05:11;;;;;;;31.25;29.25;;;;;;;;;;5060455;28;19929;-73
2024/01/08 01:07:42;;;;;;;38.70;36.50;;;;;;;;;;5060089;28;20111;-75
2024/01/08 01:10:13;;;;;;;48.47;45.50;;;;;;;;;;5061407;28;20056;-75
2024/01/08 01:12:43;;;;;;;41.35;38.90;;;;;;;;;;5061542;28;20526;-75
2024/01/08 01:15:14;;;;;;;49.78;46.72;;;;;;;;;;5061680;28;20059;-74
2024/01/08 01:17:44;;;;;;;42.13;39.70;;;;;;;;;;5061462;28;20510;-74
2024/01/08 01:20:16;;;;;;;43.22;40.80;;;;;;;;;;5062394;28;20732;-74
2024/01/08 01:22:49;;;;;;;43.88;41.35;;;;;;;;;;5063337;28;20052;-73
2024/01/08 01:25:20;;;;;;;41.53;39.00;;;;;;;;;;5062025;28;20047;-76
2024/01/08 01:27:49;;;;;;;50.88;47.83;;;;;;;;;;5060332;28;20524;-74
2024/01/08 01:30:20;;;;;;;46.95;44.22;;;;;;;;;;5061592;28;20049;-75
2024/01/08 01:32:51;;;;;;;37.28;35.00;;;;;;;;;;5062370;28;20055;-76
2024/01/08 01:35:22;;;;;;;42.13;39.50;;;;;;;;;;5061997;28;20061;-76
2024/01/08 01:37:52;;;;;;;41.58;38.85;;;;;;;;;;5062229;28;20515;-77
2024/01/08 01:40:25;;;;;;;150.13;141.25;;;;;;;;;;5061757;28;20052;-73
2024/01/08 01:42:55;;;;;;;162.95;152.75;;;;;;;;;;5061785;28;20566;-72
2024/01/08 01:45:27;;;;;;;119.38;112.25;;;;;;;;;;5062070;28;20048;-75
2024/01/08 01:47:57;;;;;;;35.47;33.40;;;;;;;;;;5062605;28;20045;-76
2024/01/08 01:50:29;;;;;;;46.15;43.33;;;;;;;;;;5062437;28;20049;-75
2024/01/08 01:53:00;;;;;;;40.40;37.75;;;;;;;;;;5063245;28;20060;-75
2024/01/08 01:55:31;;;;;;;39.80;37.40;;;;;;;;;;5062122;28;20059;-74
2024/01/08 01:58:01;;;;;;;45.85;42.63;;;;;;;;;;5061565;28;20055;-76
2024/01/08 02:00:34;;;;;;;54.30;48.80;;;;;;;;;;5062386;28;20048;-77
2024/01/08 02:03:06;;;;;;;47.35;42.95;;;;;;;;;;5061923;28;20047;-73
2024/01/08 02:05:37;;;;;;;76.70;57.38;;;;;;;;;;5061121;28;20051;-74
2024/01/08 02:08:08;;;;;;;76.22;59.33;;;;;;;;;;5062277;28;20051;-74
2024/01/08 02:10:40;;;;;;;72.80;55.13;;;;;;;;;;5062459;28;20071;-76
2024/01/08 02:13:11;;;;;;;53.97;46.67;;;;;;;;;;5061784;28;20045;-74
2024/01/08 02:15:41;;;;;;;48.40;44.25;;;;;;;;;;5061905;28;20053;-75
2024/01/08 02:18:11;;;;;;;48.67;44.95;;;;;;;;;;5061476;28;20059;-73
2024/01/08 02:20:42;;;;;;;44.13;41.10;;;;;;;;;;5061121;28;20056;-75
2024/01/08 02:23:13;;;;;;;43.30;40.47;;;;;;;;;;5061863;28;20725;-73
2024/01/08 02:25:42;;;;;;;48.58;44.65;;;;;;;;;;5061903;28;20041;-74
2024/01/08 02:28:13;;;;;;;52.17;46.80;;;;;;;;;;5061789;28;20056;-74
2024/01/08 02:30:43;;;;;;;51.72;47.22;;;;;;;;;;5060996;28;20048;-74
2024/01/08 02:33:13;;;;;;;39.40;36.10;;;;;;;;;;5061352;28;20053;-77
2024/01/08 02:35:45;;;;;;;56.75;52.97;;;;;;;;;;5060911;28;20057;-73
2024/01/08 02:38:17;;;;;;;42.90;40.17;;;;;;;;;;5062204;28;20051;-73
2024/01/08 02:40:48;;;;;;;45.88;42.83;;;;;;;;;;5065284;28;20052;-77
2024/01/08 02:43:17;;;;;;;49.05;46.15;;;;;;;;;;5064916;28;20041;-77
2024/01/08 02:45:49;;;;;;;48.63;45.63;;;;;;;;;;5065628;28;20508;-81
2024/01/08 02:48:20;;;;;;;46.20;43.25;;;;;;;;;;5064748;28;20047;-75
2024/01/08 02:50:50;;;;;;;48.65;45.63;;;;;;;;;;5065260;28;20056;-76
2024/01/08 02:53:20;;;;;;;46.33;43.55;;;;;;;;;;5065057;28;20048;-73
2024/01/08 02:55:50;;;;;;;43.92;41.17;;;;;;;;;;5065097;28;20507;-76
2024/01/08 02:58:21;;;;;;;42.28;39.78;;;;;;;;;;5064665;28;20041;-75
2024/01/08 03:00:51;;;;;;;46.47;43.60;;;;;;;;;;5064801;28;20060;-76
2024/01/08 03:03:23;;;;;;;44.83;41.97;;;;;;;;;;5065876;28;20052;-75
2024/01/08 03:05:54;;;;;;;45.63;42.55;;;;;;;;;;5064603;28;20051;-76
2024/01/08 03:08:25;;;;;;;43.55;41.03;;;;;;;;;;5064660;28;20115;-74
2024/01/08 03:10:57;;;;;;;43.72;41.13;;;;;;;;;;5064967;28;20546;-76
2024/01/08 03:13:27;;;;;;;36.47;34.22;;;;;;;;;;5065205;28;20043;-76
2024/01/08 03:15:57;;;;;;;46.85;43.70;;;;;;;;;;5064471;28;20056;-74
2024/01/08 03:18:28;;;;;;;49.75;46.80;;;;;;;;;;5064567;28;20047;-74
2024/01/08 03:20:58;;;;;;;43.28;40.67;;;;;;;;;;5064480;28;20052;-75
2024/01/08 03:23:29;;;;;;;44.70;41.95;;;;;;;;;;5065018;28;20052;-74
2024/01/08 03:25:59;;;;;;;47.45;44.13;;;;;;;;;;5064178;28;20045;-75
2024/01/08 03:28:30;;;;;;;54.42;50.80;;;;;;;;;;5064443;28;20055;-75
2024/01/08 03:31:02;;;;;;;43.88;41.00;;;;;;;;;;5063012;28;20051;-75
2024/01/08 03:33:32;;;;;;;51.20;47.75;;;;;;;;;;5064720;28;20052;-77
2024/01/08 03:36:03;;;;;;;54.28;50.92;;;;;;;;;;5064198;28;20052;-76
2024/01/08 03:38:34;;;;;;;40.42;37.88;;;;;;;;;;5063983;28;20060;-76
2024/01/08 03:41:05;;;;;;;54.85;51.42;;;;;;;;;;5064911;28;20047;-76
2024/01/08 03:43:36;;;;;;;45.00;42.17;;;;;;;;;;5062555;28;20060;-73
2024/01/08 03:46:07;;;;;;;48.22;45.28;;;;;;;;;;5063696;28;20488;-76
2024/01/08 03:48:37;;;;;;;85.22;79.57;;;;;;;;;;5063752;28;20037;-73
2024/01/08 03:51:08;;;;;;;49.72;46.88;;;;;;;;;;5063764;28;20059;-75
2024/01/08 03:53:39;;;;;;;45.70;43.05;;;;;;;;;;5063489;28;20412;-74
2024/01/08 03:56:10;;;;;;;43.55;41.08;;;;;;;;;;5063547;28;20045;-77
2024/01/08 03:58:41;;;;;;;50.13;47.03;;;;;;;;;;5064064;28;20051;-74
2024/01/08 04:01:14;;;;;;;47.38;44.65;;;;;;;;;;5063601;28;20056;-73
2024/01/08 04:03:45;;;;;;;47.72;44.83;;;;;;;;;;5063597;28;20051;-75
2024/01/08 04:06:16;;;;;;;48.42;45.50;;;;;;;;;;5062450;28;20052;-73
2024/01/08 04:08:47;;;;;;;50.17;47.17;;;;;;;;;;5063585;28;20056;-75
2024/01/08 04:11:17;;;;;;;49.28;46.38;;;;;;;;;;5063581;28;20048;-76
2024/01/08 04:13:48;;;;;;;50.05;47.30;;;;;;;;;;5063958;28;20048;-76
2024/01/08 04:16:19;;;;;;;49.53;46.72;;;;;;;;;;5062182;28;20040;-73
2024/01/08 04:18:49;;;;;;;51.00;47.83;;;;;;;;;;5063214;28;20052;-75
2024/01/08 04:21:20;;;;;;;52.53;48.90;;;;;;;;;;5063222;28;20593;-76
2024/01/08 04:23:51;;;;;;;50.30;47.47;;;;;;;;;;5063147;28;20048;-76
2024/01/08 04:26:23;;;;;;;53.90;50.75;;;;;;;;;;5062710;28;20056;-75
2024/01/08 04:28:54;;;;;;;61.95;58.63;;;;;;;;;;5062630;28;20911;-74
2024/01/08 04:31:28;;;;;;;67.43;63.40;;;;;;;;;;5062923;28;20048;-76
2024/01/08 04:34:00;;;;;;;62.85;59.38;;;;;;;;;;5063487;28;20487;-75
2024/01/08 04:36:31;;;;;;;62.47;59.03;;;;;;;;;;5062944;28;20057;-77
2024/01/08 04:39:01;;;;;;;47.03;44.20;;;;;;;;;;5062866;28;20526;-73
2024/01/08 04:41:32;;;;;;;51.88;48.95;;;;;;;;;;5061705;28;20063;-77
2024/01/08 04:44:04;;;;;;;63.03;59.28;;;;;;;;;;5061012;28;20040;-75
2024/01/08 04:46:35;;;;;;;47.35;44.47;;;;;;;;;;5063062;28;20159;-73
2024/01/08 04:49:05;;;;;;;55.67;52.58;;;;;;;;;;5063047;28;20693;-73
2024/01/08 04:51:36;;;;;;;61.70;57.88;;;;;;;;;;5062364;28;20052;-75
2024/01/08 04:54:09;;;;;;;55.13;51.67;;;;;;;;;;5061359;28;20053;-75
2024/01/08 04:56:40;;;;;;;59.05;55.72;;;;;;;;;;5062362;28;20079;-76
2024/01/08 04:59:11;;;;;;;57.97;54.50;;;;;;;;;;5062865;28;20060;-77
2024/01/08 05:01:41;;;;;;;57.33;53.83;;;;;;;;;;5061994;28;20052;-73
2024/01/08 05:04:13;;;;;;;47.42;44.45;;;;;;;;;;5062662;28;20621;-76
2024/01/08 05:06:44;;;;;;;52.80;49.70;;;;;;;;;;5062505;28;20504;-76
2024/01/08 05:09:14;;;;;;;59.40;56.10;;;;;;;;;;5062901;28;20055;-75
2024/01/08 05:11:44;;;;;;;57.80;54.30;;;;;;;;;;5062281;28;21139;-75
2024/01/08 05:14:16;;;;;;;60.10;56.65;;;;;;;;;;5061983;28;20063;-73
2024/01/08 05:16:46;;;;;;;53.00;49.63;;;;;;;;;;5062488;28;20044;-77
2024/01/08 05:19:17;;;;;;;55.08;51.67;;;;;;;;;;5062240;28;20615;-74
2024/01/08 05:21:47;;;;;;;48.88;45.88;;;;;;;;;;5061843;28;20041;-74
2024/01/08 05:24:17;;;;;;;54.67;51.70;;;;;;;;;;5060865;28;20559;-75
2024/01/08 05:26:49;;;;;;;53.72;50.83;;;;;;;;;;5062364;28;20423;-76
2024/01/08 05:29:20;;;;;;;62.50;59.10;;;;;;;;;;5062582;28;20060;-74
2024/01/08 05:31:51;;;;;;;52.88;50.00;;;;;;;;;;5062871;28;20053;-74
2024/01/08 05:34:21;;;;;;;51.95;49.00;;;;;;;;;;5062228;28;20037;-76
2024/01/08 05:36:51;;;;;;;54.80;51.65;;;;;;;;;;5061950;28;20067;-76
2024/01/08 05:39:22;;;;;;;43.70;41.33;;;;;;;;;;5062555;28;20089;-76
2024/01/08 05:41:54;;;;;;;47.22;44.33;;;;;;;;;;5062011;28;20052;-73
2024/01/08 05:44:24;;;;;;;48.42;45.58;;;;;;;;;;5061555;28;20492;-73
2024/01/08 05:46:55;;;;;;;49.58;46.65;;;;;;;;;;5062187;28;20040;-75
2024/01/08 05:49:25;;;;;;;46.53;43.78;;;;;;;;;;5061904;28;20055;-75
2024/01/08 05:51:57;;;;;;;47.75;45.15;;;;;;;;;;5062387;28;20045;-74
2024/01/08 05:54:28;;;;;;;47.92;45.03;;;;;;;;;;5062451;28;20048;-76
2024/01/08 05:56:58;;;;;;;48.33;45.70;;;;;;;;;;5062122;28;20049;-75
2024/01/08 05:59:29;;;;;;;51.33;48.38;;;;;;;;;;5061821;28;20055;-74
2024/01/08 06:01:59;;;;;;;42.53;39.83;;;;;;;;;;5061576;28;20048;-75
2024/01/08 06:04:30;;;;;;;48.35;45.22;;;;;;;;;;5061786;28;20051;-75
2024/01/08 06:07:01;;;;;;;46.42;43.92;;;;;;;;;;5061522;28;20041;-72
2024/01/08 06:09:31;;;;;;;55.45;52.15;;;;;;;;;;5061937;28;20044;-77
2024/01/08 06:12:04;;;;;;;44.95;42.35;;;;;;;;;;5062361;28;20048;-75
2024/01/08 06:14:41;;;;;;;46.08;43.13;;;;;;;;;;5065476;28;20411;-77
2024/01/08 06:17:13;;;;;;;45.65;42.75;;;;;;;;;;5065442;28;20048;-75
2024/01/08 06:19:44;;;;;;;44.22;41.67;;;;;;;;;;5064986;28;20044;-74
2024/01/08 06:22:14;;;;;;;51.65;48.50;;;;;;;;;;5065543;28;20077;-74
2024/01/08 06:24:44;;;;;;;51.80;48.85;;;;;;;;;;5065899;28;20102;-73
2024/01/08 06:27:15;;;;;;;45.25;42.55;;;;;;;;;;5066047;28;20052;-73
2024/01/08 06:29:46;;;;;;;51.95;48.95;;;;;;;;;;5065556;28;20044;-76
2024/01/08 06:32:16;;;;;;;56.20;52.78;;;;;;;;;;5064905;28;20051;-75
2024/01/08 06:34:46;;;;;;;41.60;39.22;;;;;;;;;;5064959;28;20044;-74
2024/01/08 06:37:17;;;;;;;46.17;43.22;;;;;;;;;;5065321;28;20048;-75
2024/01/08 06:39:47;;;;;;;42.22;39.92;;;;;;;;;;5065520;28;20048;-76
2024/01/08 06:42:18;;;;;;;44.85;42.25;;;;;;;;;;5065359;28;20072;-75
2024/01/08 06:44:49;;;;;;;48.67;45.58;;;;;;;;;;5064928;28;20049;-74
2024/01/08 06:47:20;;;;;;;51.45;48.15;;;;;;;;;;5065292;28;20052;-75
2024/01/08 06:49:50;;;;;;;50.42;47.08;;;;;;;;;;5064965;28;20048;-74
2024/01/08 06:52:20;;;;;;;45.30;42.58;;;;;;;;;;5064925;28;20041;-77
2024/01/08 06:54:51;;;;;;;50.28;47.40;;;;;;;;;;5065296;28;20056;-77
2024/01/08 06:57:22;;;;;;;46.10;43.65;;;;;;;;;;5065221;28;20048;-76
2024/01/08 06:59:52;;;;;;;50.55;47.55;;;;;;;;;;5064856;28;20041;-76
2024/01/08 07:02:24;;;;;;;51.85;48.67;;;;;;;;;;5064093;28;20551;-74
2024/01/08 07:04:56;;;;;;;60.78;57.45;;;;;;;;;;5064248;28;20044;-76
2024/01/08 07:07:27;;;;;;;53.17;50.22;;;;;;;;;;5064409;28;20040;-76
2024/01/08 07:09:57;;;;;;;52.85;49.88;;;;;;;;;;5064378;28;20049;-77
2024/01/08 07:12:27;;;;;;;74.32;70.28;;;;;;;;;;5064507;28;20111;-74
2024/01/08 07:14:58;;;;;;;75.65;71.32;;;;;;;;;;5064958;28;20052;-74
2024/01/08 07:17:30;;;;;;;82.85;78.22;;;;;;;;;;5065212;28;20052;-77
2024/01/08 07:20:02;;;;;;;84.90;79.82;;;;;;;;;;5064962;28;20087;-73
2024/01/08 07:22:33;;;;;;;76.43;72.25;;;;;;;;;;5064729;28;20044;-76
2024/01/08 07:25:03;;;;;;;75.97;71.65;;;;;;;;;;5063059;28;20051;-74
2024/01/08 07:27:35;;;;;;;74.03;69.85;;;;;;;;;;5064345;28;20048;-75
2024/01/08 07:30:09;;;;;;;72.75;68.43;;;;;;;;;;5064300;28;20419;-75
2024/01/08 07:32:40;;;;;;;81.38;76.93;;;;;;;;;;5064030;28;20056;-76
2024/01/08 07:35:11;;;;;;;72.35;68.30;;;;;;;;;;5063638;28;21189;-75
2024/01/08 07:37:42;;;;;;;72.82;68.78;;;;;;;;;;5064320;28;20056;-74
2024/01/08 07:40:14;;;;;;;78.30;73.75;;;;;;;;;;5063760;28;20049;-73
2024/01/08 07:42:44;;;;;;;83.30;78.53;;;;;;;;;;5064210;28;20049;-74
2024/01/08 07:45:14;;;;;;;78.65;74.13;;;;;;;;;;5063796;28;20488;-76
2024/01/08 07:47:45;;;;;;;75.50;70.82;;;;;;;;;;5063596;28;20048;-76
2024/01/08 07:50:17;;;;;;;71.70;67.43;;;;;;;;;;5064817;28;20523;-73
2024/01/08 07:52:49;;;;;;;73.35;68.75;;;;;;;;;;5062986;28;20052;-77
2024/01/08 07:55:20;;;;;;;66.97;63.22;;;;;;;;;;5064109;28;20044;-76
2024/01/08 07:57:50;;;;;;;68.78;64.68;;;;;;;;;;5064370;28;20049;-75
2024/01/08 08:00:21;;;;;;;75.70;71.28;;;;;;;;;;5063842;28;20052;-73
2024/01/08 08:02:54;;;;;;;64.20;60.53;;;;;;;;;;5063770;28;20047;-75
2024/01/08 08:05:24;;;;;;;72.00;67.65;;;;;;;;;;5064140;28;20057;-75
2024/01/08 08:08:00;;;;;;;58.65;55.05;;;;;;;;;;5062383;28;20392;-74
2024/01/08 08:10:32;;;;;;;72.35;68.25;;;;;;;;;;5063519;28;20048;-77
2024/01/08 08:13:03;;;;;;;77.38;72.68;;;;;;;;;;5063468;28;20078;-77
2024/01/08 08:15:33;;;;;;;76.55;72.20;;;;;;;;;;5062169;28;20427;-76
2024/01/08 08:18:04;;;;;;;67.60;63.55;;;;;;;;;;5063427;28;20052;-75
2024/01/08 08:20:36;;;;;;;74.13;70.15;;;;;;;;;;5062873;28;20052;-76
2024/01/08 08:23:08;;;;;;;69.78;65.80;;;;;;;;;;5063201;28;20040;-76
2024/01/08 08:25:39;;;;;;;75.93;71.47;;;;;;;;;;5063284;28;20478;-73
2024/01/08 08:28:09;;;;;;;15.93;14.65;;;;;;;;;;5063684;28;20744;-73
2024/01/08 08:30:40;;;;;;;3.90;1.50;;;;;;;;;;5063166;28;20056;-73
2024/01/08 08:33:12;;;;;;;2.88;1.70;;;;;;;;;;5062582;28;20052;-76
2024/01/08 08:35:43;;;;;;;4.80;1.83;;;;;;;;;;5063097;28;20504;-77
2024/01/08 08:38:13;;;;;;;3.95;1.77;;;;;;;;;;5063103;28;20052;-75
2024/01/08 08:40:44;;;;;;;3.60;1.80;;;;;;;;;;5064126;28;20553;-73
2024/01/08 08:43:15;;;;;;;3.58;1.67;;;;;;;;;;5063215;28;20048;-74
2024/01/08 08:45:46;;;;;;;5.47;2.00;;;;;;;;;;5063453;28;20514;-73
2024/01/08 08:48:18;;;;;;;4.30;1.70;;;;;;;;;;5062885;28;20048;-74
2024/01/08 08:50:48;;;;;;;2.10;1.90;;;;;;;;;;5062970;28;20075;-73
2024/01/08 08:53:20;;;;;;;4.30;1.83;;;;;;;;;;5062438;28;20401;-78
2024/01/08 08:55:52;;;;;;;8.15;1.75;;;;;;;;;;5063252;28;20048;-76
2024/01/08 08:58:23;;;;;;;4.63;1.60;;;;;;;;;;5062136;28;20055;-75
2024/01/08 09:00:53;;;;;;;4.43;1.58;;;;;;;;;;5062866;28;20036;-77
2024/01/08 09:03:25;;;;;;;7.53;2.00;;;;;;;;;;5061604;28;20606;-75
2024/01/08 09:05:56;;;;;;;7.43;2.08;;;;;;;;;;5062774;28;20499;-73
2024/01/08 09:08:27;;;;;;;5.38;2.00;;;;;;;;;;5062734;28;20055;-74
2024/01/08 09:10:58;;;;;;;7.20;2.22;;;;;;;;;;5062645;28;20403;-74
2024/01/08 09:13:30;;;;;;;6.85;1.83;;;;;;;;;;5061087;28;20060;-71
2024/01/08 09:16:00;;;;;;;4.07;1.63;;;;;;;;;;5062474;28;20044;-75
2024/01/08 09:18:31;;;;;;;5.32;1.48;;;;;;;;;;5062539;28;20064;-75
2024/01/08 09:21:01;;;;;;;3.35;1.80;;;;;;;;;;5063138;28;20416;-74
2024/01/08 09:23:31;;;;;;;3.42;1.80;;;;;;;;;;5061905;28;20048;-74
2024/01/08 09:26:04;;;;;;;9.98;2.05;;;;;;;;;;5062715;28;20044;-73
2024/01/08 09:28:34;;;;;;;5.60;1.67;;;;;;;;;;5062533;28;20060;-74
2024/01/08 09:31:05;;;;;;;5.82;1.77;;;;;;;;;;5062465;28;20051;-75
2024/01/08 09:33:36;;;;;;;7.28;1.80;;;;;;;;;;5062381;28;20060;-78
2024/01/08 09:36:07;;;;;;;7.72;1.77;;;;;;;;;;5061688;28;20063;-78
2024/01/08 09:38:38;;;;;;;7.93;1.85;;;;;;;;;;5061776;28;20052;-74
2024/01/08 09:41:12;;;;;;;6.53;1.60;;;;;;;;;;5062072;28;20048;-76
2024/01/08 09:43:53;;;;;;;10.23;2.55;;;;;;;;;;5062088;28;20392;-76
2024/01/08 09:46:32;;;;;;;6.32;1.80;;;;;;;;;;5061979;28;20048;-77
2024/01/08 09:49:03;;;;;;;3.45;1.50;;;;;;;;;;5068758;28;20376;-74
2024/01/08 09:51:34;;;;;;;7.93;1.58;;;;;;;;;;5068775;28;20048;-77
2024/01/08 09:54:05;;;;;;;16.77;2.65;;;;;;;;;;5069018;28;20044;-76
2024/01/08 09:56:37;;;;;;;3.55;2.00;;;;;;;;;;5068340;28;20040;-76
2024/01/08 09:59:07;;;;;;;3.78;1.55;;;;;;;;;;5068184;28;20051;-72
2024/01/08 10:01:37;;;;;;;11.05;2.00;;;;;;;;;;5069204;28;20044;-76
2024/01/08 10:04:11;;;;;;;10.75;1.83;;;;;;;;;;5069038;28;20036;-76
2024/01/08 10:06:47;;;;;;;7.90;1.95;;;;;;;;;;5068138;28;20052;-77
2024/01/08 10:09:18;;;;;;;6.18;1.75;;;;;;;;;;5069257;28;20496;-74
2024/01/08 10:11:48;;;;;;;6.72;1.80;;;;;;;;;;5068487;28;20044;-77
2024/01/08 10:14:19;;;;;;;5.38;1.60;;;;;;;;;;5068751;28;20049;-75
2024/01/08 10:16:50;;;;;;;5.18;1.50;;;;;;;;;;5068442;28;20554;-75
2024/01/08 10:19:31;;;;;;;7.18;1.63;;;;;;;;;;5066695;28;20404;-73
2024/01/08 10:22:08;;;;;;;6.75;1.50;;;;;;;;;;5068430;28;20048;-73
2024/01/08 10:24:43;;;;;;;12.38;2.30;;;;;;;;;;5068748;28;20059;-77
2024/01/08 10:27:14;;;;;;;2.85;1.33;;;;;;;;;;5068294;28;20048;-73
2024/01/08 10:29:45;;;;;;;6.82;1.52;;;;;;;;;;5068095;28;20055;-74
2024/01/08 10:32:18;;;;;;;2.30;1.23;;;;;;;;;;5068275;28;20123;-75
2024/01/08 10:34:49;;;;;;;4.18;1.50;;;;;;;;;;5066704;28;20052;-75
2024/01/08 10:37:22;;;;;;;1.95;1.10;;;;;;;;;;5068725;28;20071;-75
2024/01/08 10:39:55;;;;;;;4.10;1.10;;;;;;;;;;5068921;28;20048;-74
2024/01/08 10:42:26;;;;;;;4.68;1.70;;;;;;;;;;5068482;28;20671;-76
2024/01/08 10:44:56;;;;;;;3.20;1.17;;;;;;;;;;5069257;28;20044;-79
2024/01/08 10:47:28;;;;;;;5.97;1.40;;;;;;;;;;5068103;28;20078;-75
2024/01/08 10:50:07;;;;;;;3.30;1.17;;;;;;;;;;5066668;28;20110;-73
2024/01/08 10:52:50;;;;;;;3.17;1.50;;;;;;;;;;5067840;28;20757;-73
2024/01/08 10:55:23;;;;;;;6.55;1.40;;;;;;;;;;5068548;28;20083;-75
2024/01/08 10:58:03;;;;;;;5.25;2.08;;;;;;;;;;5068302;28;20044;-74
2024/01/08 11:00:35;;;;;;;7.28;2.50;;;;;;;;;;5064003;28;20055;-74
2024/01/08 11:03:07;;;;;;;3.05;1.35;;;;;;;;;;5065202;28;20431;-74
2024/01/08 11:05:39;;;;;;;6.82;1.60;;;;;;;;;;5065643;28;20049;-74
2024/01/08 11:08:11;;;;;;;13.73;2.00;;;;;;;;;;5064748;28;20419;-73
2024/01/08 11:10:44;;;;;;;4.72;1.25;;;;;;;;;;5065150;28;20049;-74
2024/01/08 11:13:16;;;;;;;4.30;1.20;;;;;;;;;;5064921;28;20052;-74
2024/01/08 11:15:48;;;;;;;4.03;1.27;;;;;;;;;;5064393;28;20049;-74
2024/01/08 11:18:26;;;;;;;3.08;1.35;;;;;;;;;;5064596;28;20048;-74
2024/01/08 11:21:02;;;;;;;5.97;1.30;;;;;;;;;;5065325;28;20051;-75
2024/01/08 11:23:40;;;;;;;7.32;1.65;;;;;;;;;;5064865;28;20052;-74
2024/01/08 11:26:22;;;;;;;4.10;1.30;;;;;;;;;;5064203;28;20052;-74
2024/01/08 11:29:05;;;;;;;7.50;3.83;;;;;;;;;;5064498;28;20052;-76
2024/01/08 11:31:48;;;;;;;3.67;1.85;;;;;;;;;;5064342;28;20048;-74
2024/01/08 11:34:31;;;;;;;7.80;1.60;;;;;;;;;;5064587;28;20075;-74
2024/01/08 11:37:32;;;;;;;5.15;1.48;;;;;;;;;;5064592;28;20065;-73
2024/01/08 11:40:15;;;;;;;3.83;1.23;;;;;;;;;;5063939;28;20040;-74
2024/01/08 11:42:52;;;;;;;5.20;1.50;;;;;;;;;;5062790;28;20063;-74
2024/01/08 11:45:24;;;;;;;2.60;1.27;;;;;;;;;;5064068;28;20545;-73
2024/01/08 11:47:54;;;;;;;3.20;1.15;;;;;;;;;;5064108;28;20045;-75
2024/01/08 11:50:24;;;;;;;5.05;1.30;;;;;;;;;;5063982;28;20056;-75
2024/01/08 11:53:00;;;;;;;6.00;1.65;;;;;;;;;;5063860;28;20620;-74
2024/01/08 11:55:32;;;;;;;6.32;1.40;;;;;;;;;;5063586;28;20046;-73
2024/01/08 11:58:05;;;;;;;7.30;1.52;;;;;;;;;;5063856;28;20488;-74
2024/01/08 12:00:36;;;;;;;6.65;1.70;;;;;;;;;;5064479;28;20052;-74
2024/01/08 12:03:09;;;;;;;3.65;1.27;;;;;;;;;;5063895;28;20045;-74
2024/01/08 12:05:40;;;;;;;5.43;1.38;;;;;;;;;;5063407;28;20044;-74
2024/01/08 12:08:19;;;;;;;6.60;1.52;;;;;;;;;;5063771;28;20044;-74
2024/01/08 12:10:55;;;;;;;5.28;1.35;;;;;;;;;;5063638;28;21030;-74
2024/01/08 12:13:26;;;;;;;2.88;1.30;;;;;;;;;;5063252;28;20048;-74
2024/01/08 12:15:58;;;;;;;5.80;1.80;;;;;;;;;;5063518;28;20510;-74
2024/01/08 12:18:30;;;;;;;4.22;1.50;;;;;;;;;;5063721;28;20395;-74
2024/01/08 12:21:03;;;;;;;5.18;1.20;;;;;;;;;;5061298;28;20504;-74
2024/01/08 12:23:34;;;;;;;4.05;1.50;;;;;;;;;;5063187;28;20055;-74
2024/01/08 12:26:07;;;;;;;5.63;1.70;;;;;;;;;;5063249;28;20048;-74
2024/01/08 12:28:41;;;;;;;5.15;2.03;;;;;;;;;;5062878;28;20499;-74
2024/01/08 12:31:12;;;;;;;3.13;1.55;;;;;;;;;;5063707;28;20063;-75
2024/01/08 12:33:43;;;;;;;1.75;1.20;;;;;;;;;;5063666;28;20052;-75
2024/01/08 12:36:14;;;;;;;4.15;1.15;;;;;;;;;;5063558;28;20052;-74
2024/01/08 12:38:45;;;;;;;2.28;1.20;;;;;;;;;;5063038;28;20400;-78
2024/01/08 12:41:15;;;;;;;8.75;1.35;;;;;;;;;;5062752;28;20427;-75
2024/01/08 12:43:47;;;;;;;3.08;1.00;;;;;;;;;;5062618;28;20058;-75
2024/01/08 12:46:18;;;;;;;3.97;1.02;;;;;;;;;;5063232;28;20055;-75
2024/01/08 12:48:49;;;;;;;3.83;0.95;;;;;;;;;;5061826;28;20715;-75
2024/01/08 12:51:19;;;;;;;3.22;1.20;;;;;;;;;;5062220;28;20048;-74
2024/01/08 12:53:49;;;;;;;3.92;1.02;;;;;;;;;;5062354;28;20044;-74
2024/01/08 12:56:21;;;;;;;14.30;1.90;;;;;;;;;;5062423;28;20407;-78
2024/01/08 12:58:52;;;;;;;2.55;1.30;;;;;;;;;;5063009;28;20051;-74
2024/01/08 13:01:23;;;;;;;7.10;1.38;;;;;;;;;;5061642;28;20419;-74
2024/01/08 13:03:56;;;;;;;4.32;1.10;;;;;;;;;;5062249;28;20053;-73
2024/01/08 13:06:26;;;;;;;6.38;1.10;;;;;;;;;;5062326;28;20040;-74
2024/01/08 13:08:59;;;;;;;4.05;1.00;;;;;;;;;;5063009;28;20051;-73
2024/01/08 13:11:29;;;;;;;2.83;0.95;;;;;;;;;;5062486;28;20041;-74
2024/01/08 13:13:59;;;;;;;4.03;1.20;;;;;;;;;;5062403;28;20044;-74
2024/01/08 13:16:31;;;;;;;7.93;1.20;;;;;;;;;;5062759;28;20048;-74
2024/01/08 13:19:02;;;;;;;3.53;0.90;;;;;;;;;;5062575;28;20067;-74
2024/01/08 13:21:32;;;;;;;5.40;0.95;;;;;;;;;;5061742;28;20052;-74
2024/01/08 13:24:04;;;;;;;1.58;0.80;;;;;;;;;;5061337;28;20061;-74
2024/01/08 13:26:35;;;;;;;2.25;0.88;;;;;;;;;;5062745;28;20411;-74
2024/01/08 13:29:07;;;;;;;2.40;0.80;;;;;;;;;;5062331;28;20045;-74
2024/01/08 13:31:41;;;;;;;1.98;0.90;;;;;;;;;;5062370;28;20049;-74
2024/01/08 13:34:11;;;;;;;2.70;0.80;;;;;;;;;;5061921;28;20060;-75
2024/01/08 13:36:42;;;;;;;1.52;0.82;;;;;;;;;;5062002;28;20052;-75
2024/01/08 13:39:14;;;;;;;3.60;0.90;;;;;;;;;;5062670;28;20508;-79
2024/01/08 13:41:44;;;;;;;4.40;0.90;;;;;;;;;;5062153;28;20052;-74
2024/01/08 13:44:14;;;;;;;3.35;0.73;;;;;;;;;;5061178;28;20045;-74
2024/01/08 13:46:47;;;;;;;2.38;0.90;;;;;;;;;;5061869;28;20049;-74
2024/01/08 13:49:22;;;;;;;2.08;0.77;;;;;;;;;;5061712;28;20040;-74
2024/01/08 13:51:52;;;;;;;4.03;0.80;;;;;;;;;;5061870;28;20051;-75
2024/01/08 13:54:23;;;;;;;2.40;0.80;;;;;;;;;;5062604;28;20422;-74
2024/01/08 13:56:56;;;;;;;4.05;1.20;;;;;;;;;;5062605;28;20051;-74
2024/01/08 13:59:28;;;;;;;5.03;0.98;;;;;;;;;;5062047;28;20052;-73
2024/01/08 14:01:59;;;;;;;4.13;0.98;;;;;;;;;;5061735;28;20048;-74
2024/01/08 14:04:32;;;;;;;3.28;0.90;;;;;;;;;;5061680;28;20040;-74
2024/01/08 14:07:03;;;;;;;1.15;0.90;;;;;;;;;;5060488;28;20052;-75
2024/01/08 14:09:35;;;;;;;4.45;0.90;;;;;;;;;;5061777;28;20063;-74
2024/01/08 14:12:06;;;;;;;4.38;0.90;;;;;;;;;;5061957;28;20051;-75
2024/01/08 14:14:38;;;;;;;2.40;1.05;;;;;;;;;;5061506;28;20063;-76
2024/01/08 14:17:09;;;;;;;1.48;0.80;;;;;;;;;;5061987;28;20051;-74
2024/01/08 14:19:40;;;;;;;3.83;1.10;;;;;;;;;;5061617;28;20044;-74
2024/01/08 14:22:11;;;;;;;2.30;0.68;;;;;;;;;;5060415;28;20048;-74
2024/01/08 14:24:40;;;;;;;3.00;0.70;;;;;;;;;;5062564;28;20067;-74
2024/01/08 14:27:12;;;;;;;2.33;1.05;;;;;;;;;;5061215;28;20518;-76
2024/01/08 14:29:46;;;;;;;4.60;1.05;;;;;;;;;;5060703;28;20052;-74
2024/01/08 14:32:17;;;;;;;1.50;0.85;;;;;;;;;;5061856;28;20411;-74
2024/01/08 14:34:47;;;;;;;2.97;0.93;;;;;;;;;;5064216;28;20079;-74
2024/01/08 14:37:18;;;;;;;3.38;1.20;;;;;;;;;;5065898;28;20745;-75
2024/01/08 14:39:49;;;;;;;2.25;1.40;;;;;;;;;;5065461;28;20037;-74
2024/01/08 14:42:19;;;;;;;2.50;1.30;;;;;;;;;;5065111;28;20067;-73
2024/01/08 14:44:51;;;;;;;5.65;2.40;;;;;;;;;;5065179;28;20047;-74
2024/01/08 14:47:23;;;;;;;2.75;1.33;;;;;;;;;;5065988;28;20521;-75
2024/01/08 14:49:55;;;;;;;4.80;1.90;;;;;;;;;;5065094;28;20049;-74
2024/01/08 14:52:25;;;;;;;3.95;1.38;;;;;;;;;;5065497;28;20048;-73
2024/01/08 14:54:55;;;;;;;2.15;1.85;;;;;;;;;;5064735;28;20056;-73